Time;durP1;ratioP1;P1;durP2;ratioP2;P2;SDS_P1;SDS_P2;PMS_P1;PMS_P2;Temp;Humidity;BMP_temperature;BMP_pressure;BME280_temperature;BME280_humidity;BME280_pressure;Samples;Min_cycle;Max_cycle;Signal;HPM_P1;HPM_P2
2022/05/20 00:01:59;;;;;;;5.97;3.50;;;;;;;11.43;59.45;101158.16;4454052;32;20425;-65
2022/05/20 00:04:27;;;;;;;6.32;3.70;;;;;;;11.50;59.65;101156.38;4453956;32;20494;-65
2022/05/20 00:06:54;;;;;;;7.53;3.58;;;;;;;11.51;59.65;101160.75;4453983;32;20093;-65
2022/05/20 00:09:21;;;;;;;6.35;3.60;;;;;;;11.44;60.59;101157.25;4454148;32;20096;-65
2022/05/20 00:11:49;;;;;;;9.88;3.40;;;;;;;11.48;59.80;101161.66;4453884;32;20225;-65
2022/05/20 00:14:16;;;;;;;8.25;3.28;;;;;;;11.49;59.73;101154.63;4453942;32;20093;-65
2022/05/20 00:16:43;;;;;;;5.12;3.67;;;;;;;11.47;59.98;101151.09;4454033;32;20393;-65
2022/05/20 00:19:11;;;;;;;5.30;3.70;;;;;;;11.33;61.92;101147.62;4453963;32;20157;-65
2022/05/20 00:21:41;;;;;;;5.40;3.45;;;;;;;11.08;64.12;101139.75;4453800;32;20100;-65
2022/05/20 00:24:09;;;;;;;4.57;3.47;;;;;;;10.82;65.84;101146.84;4453711;32;20164;-65
2022/05/20 00:26:36;;;;;;;6.37;4.40;;;;;;;10.64;66.20;101142.47;4453842;32;20132;-65
2022/05/20 00:29:03;;;;;;;7.22;3.47;;;;;;;10.47;66.56;101148.59;4453702;32;20096;-65
2022/05/20 00:31:31;;;;;;;6.32;3.95;;;;;;;10.37;66.08;101146.81;4454636;32;20100;-65
2022/05/20 00:33:58;;;;;;;5.12;4.00;;;;;;;10.36;67.06;101154.75;4455527;32;20081;-65
2022/05/20 00:36:26;;;;;;;11.00;3.58;;;;;;;10.37;66.73;101145.94;4455628;32;20606;-65
2022/05/20 00:38:53;;;;;;;6.55;3.58;;;;;;;10.24;68.06;101143.25;4455461;32;20100;-65
2022/05/20 00:41:20;;;;;;;5.85;3.85;;;;;;;10.11;70.80;101153.78;4455457;32;20184;-65
2022/05/20 00:43:49;;;;;;;4.12;3.72;;;;;;;10.00;72.00;101145.81;4455486;32;20389;-65
2022/05/20 00:46:24;;;;;;;6.47;3.80;;;;;;;9.93;72.15;101151.94;4455506;32;20122;-65
2022/05/20 00:48:57;;;;;;;4.30;3.55;;;;;;;9.85;72.84;101161.59;4455375;32;20147;-65
2022/05/20 00:51:30;;;;;;;5.22;3.85;;;;;;;9.76;73.59;101163.31;4455485;32;20443;-65
2022/05/20 00:54:10;;;;;;;6.87;3.60;;;;;;;9.70;73.46;101173.81;4455516;32;20081;-65
2022/05/20 00:57:06;;;;;;;3.65;3.35;;;;;;;9.64;72.95;101172.91;4455317;32;20392;-65
2022/05/20 00:59:38;;;;;;;4.03;3.62;;;;;;;9.68;70.56;101169.41;4453629;32;20171;-65
2022/05/20 01:02:10;;;;;;;6.22;3.53;;;;;;;9.68;70.37;101180.84;4455389;32;20112;-65
2022/05/20 01:04:38;;;;;;;3.35;3.12;;;;;;;9.75;69.61;101168.56;4455423;32;20178;-65
2022/05/20 01:07:07;;;;;;;9.75;3.30;;;;;;;9.66;71.74;101171.16;4455549;32;20119;-65
2022/05/20 01:09:39;;;;;;;3.67;3.28;;;;;;;9.76;69.63;101167.72;4455263;32;20444;-65
2022/05/20 01:12:07;;;;;;;6.10;3.10;;;;;;;9.86;69.72;101168.59;4455335;32;20129;-65
2022/05/20 01:14:35;;;;;;;5.28;3.12;;;;;;;9.96;68.58;101167.75;4455197;32;20392;-65
2022/05/20 01:17:03;;;;;;;4.72;2.87;;;;;;;10.02;68.77;101168.66;4455148;32;20511;-65
2022/05/20 01:19:45;;;;;;;5.55;2.85;;;;;;;9.91;69.46;101161.63;4455261;32;20144;-65
2022/05/20 01:22:24;;;;;;;6.72;3.30;;;;;;;9.94;69.79;101161.63;4455285;32;20084;-65
2022/05/20 01:24:51;;;;;;;5.57;3.45;;;;;;;9.92;69.07;101166.00;4455258;32;20124;-65
2022/05/20 01:27:18;;;;;;;7.57;2.97;;;;;;;9.94;68.86;101161.63;4455013;32;20081;-65
2022/05/20 01:29:45;;;;;;;6.05;3.70;;;;;;;9.95;68.83;101161.63;4455157;32;20088;-65
2022/05/20 01:32:13;;;;;;;5.10;3.53;;;;;;;9.78;71.93;101160.69;4455096;32;20100;-65
2022/05/20 01:34:40;;;;;;;3.42;3.17;;;;;;;9.63;71.33;101158.87;4455086;32;20381;-65
2022/05/20 01:37:07;;;;;;;9.38;3.87;;;;;;;9.65;72.00;101153.62;4455014;32;20131;-65
2022/05/20 01:39:35;;;;;;;4.43;3.05;;;;;;;9.59;71.46;101154.47;4454980;32;20589;-65
2022/05/20 01:42:12;;;;;;;3.53;3.22;;;;;;;9.61;70.42;101155.37;4440093;32;20104;-65
2022/05/20 01:44:49;;;;;;;4.20;3.22;;;;;;;9.75;69.28;101152.75;4455088;32;20484;-65
2022/05/20 01:47:26;;;;;;;12.77;3.70;;;;;;;9.77;69.56;101151.03;4455293;32;20416;-65
2022/05/20 01:50:00;;;;;;;4.87;3.40;;;;;;;9.74;71.70;101146.63;4455032;32;20093;-65
2022/05/20 01:52:39;;;;;;;10.90;3.55;;;;;;;9.74;71.32;101148.38;4455051;32;20512;-65
2022/05/20 01:55:06;;;;;;;7.07;3.50;;;;;;;9.65;70.61;101143.97;4454842;32;20127;-65
2022/05/20 01:57:43;;;;;;;5.18;3.00;;;;;;;9.51;72.09;101141.28;4455073;32;20150;-65
2022/05/20 02:00:16;;;;;;;;;;;;;;;9.53;70.34;101129.00;4455462;32;20104;-65
2022/05/20 02:02:53;;;;;;;6.18;3.55;;;;;;;9.47;71.99;101135.97;4455259;32;20002;-65
2022/05/20 02:05:31;;;;;;;11.35;3.67;;;;;;;9.40;72.18;101132.47;4454923;32;20399;-65
2022/05/20 02:08:17;;;;;;;4.80;3.20;;;;;;;9.39;72.61;101125.44;4455008;32;20097;-65
2022/05/20 02:10:51;;;;;;;13.80;3.92;;;;;;;9.32;72.78;101123.62;4454868;32;20120;-65
2022/05/20 02:13:19;;;;;;;3.65;3.20;;;;;;;9.33;72.92;101130.69;4454928;32;20479;-65
2022/05/20 02:15:53;;;;;;;4.32;3.58;;;;;;;9.35;71.44;101131.56;4454929;32;20723;-65
2022/05/20 02:18:30;;;;;;;4.65;3.30;;;;;;;9.29;72.80;101126.25;4454974;32;20096;-65
2022/05/20 02:21:01;;;;;;;;;;;;;;;9.28;71.72;101138.53;4455080;32;20088;-65
2022/05/20 02:23:33;;;;;;;4.22;3.50;;;;;;;9.40;70.60;101139.47;4455054;32;20004;-65
2022/05/20 02:26:08;;;;;;;4.97;3.80;;;;;;;9.31;72.56;101132.41;4454824;32;20471;-65
2022/05/20 02:28:40;;;;;;;3.22;2.92;;;;;;;9.30;72.27;101122.78;4453035;32;20604;-65
2022/05/20 02:31:16;;;;;;;5.93;3.55;;;;;;;9.30;71.71;101133.28;4454688;32;20540;-65
2022/05/20 02:33:44;;;;;;;5.13;3.03;;;;;;;9.35;72.46;101134.19;4455064;32;20096;-65
2022/05/20 02:36:24;;;;;;;8.90;4.07;;;;;;;9.43;71.48;101129.81;4454611;32;20085;-65
2022/05/20 02:38:51;;;;;;;6.30;3.60;;;;;;;9.36;73.26;101135.94;4455014;32;20101;-65
2022/05/20 02:41:18;;;;;;;8.88;3.67;;;;;;;9.40;72.10;101132.47;4454610;32;20221;-65
2022/05/20 02:43:45;;;;;;;12.75;3.45;;;;;;;9.29;72.69;101134.12;4454596;32;20093;-65
2022/05/20 02:46:13;;;;;;;5.03;3.53;;;;;;;9.27;72.82;101120.12;4454699;32;20402;-65
2022/05/20 02:48:41;;;;;;;7.47;3.60;;;;;;;9.31;73.30;101127.16;4454616;32;20505;-65
2022/05/20 02:51:08;;;;;;;10.52;3.72;;;;;;;9.33;72.61;101120.16;4454566;32;20120;-65
2022/05/20 02:53:35;;;;;;;5.15;3.72;;;;;;;9.29;73.16;101114.00;4454330;32;20116;-65
2022/05/20 02:56:03;;;;;;;8.02;3.85;;;;;;;9.37;72.49;101110.53;4454750;32;20444;-65
2022/05/20 03:04:11;;;;;;;5.55;3.65;;;;;;;9.19;73.70;101104.31;4454541;32;20104;-65
2022/05/20 03:06:42;;;;;;;7.37;3.83;;;;;;;9.15;74.03;101104.25;4454490;32;20152;-65
2022/05/20 03:09:11;;;;;;;4.00;3.60;;;;;;;9.23;72.66;101110.47;4454526;32;20150;-65
2022/05/20 03:11:40;;;;;;;7.47;3.75;;;;;;;9.21;72.46;101106.94;4454556;32;20123;-65
2022/05/20 03:14:10;;;;;;;5.80;3.70;;;;;;;9.12;73.99;101105.16;4454532;32;20115;-65
2022/05/20 03:16:38;;;;;;;7.00;4.07;;;;;;;9.06;74.66;101100.72;4454339;32;20076;-65
2022/05/20 03:19:07;;;;;;;7.53;4.07;;;;;;;9.04;74.46;101104.19;4454334;32;20126;-65
2022/05/20 03:21:35;;;;;;;6.62;3.45;;;;;;;9.05;73.36;101104.22;4454515;32;20105;-65
2022/05/20 03:24:07;;;;;;;4.07;3.28;;;;;;;9.06;74.83;101105.97;4454356;32;20092;-65
2022/05/20 03:26:35;;;;;;;10.45;3.92;;;;;;;9.06;74.47;101107.72;4454569;32;20076;-65
2022/05/20 03:29:04;;;;;;;6.18;3.37;;;;;;;9.15;74.64;101110.44;4454573;32;20150;-65
2022/05/20 03:31:36;;;;;;;8.07;3.83;;;;;;;9.37;72.90;101116.66;4454219;32;20104;-65
2022/05/20 03:34:05;;;;;;;6.15;3.65;;;;;;;9.50;74.08;101117.59;4454397;32;20104;-65
2022/05/20 03:36:43;;;;;;;7.25;3.70;;;;;;;9.63;73.45;101100.97;4454227;32;20106;-65
2022/05/20 03:39:14;;;;;;;5.55;3.67;;;;;;;9.65;73.05;101104.50;4454269;32;20092;-65
2022/05/20 03:41:42;;;;;;;4.47;3.75;;;;;;;9.69;73.98;101102.78;4454363;32;20093;-65
2022/05/20 03:44:11;;;;;;;4.32;3.45;;;;;;;9.71;73.73;101099.25;4454278;32;20123;-65
2022/05/20 03:46:44;;;;;;;6.37;3.92;;;;;;;9.75;72.88;101101.03;4454273;32;20195;-65
2022/05/20 03:49:12;;;;;;;4.25;3.47;;;;;;;9.77;74.22;101101.91;4454193;32;20349;-65
2022/05/20 03:51:40;;;;;;;5.75;3.55;;;;;;;9.90;73.92;101105.47;4454032;32;20589;-65
2022/05/20 03:54:07;;;;;;;4.40;3.22;;;;;;;9.98;73.30;101105.47;4455203;32;20088;-65
2022/05/20 03:56:34;;;;;;;7.53;3.22;;;;;;;10.25;71.10;101102.00;4454965;32;20092;-65
2022/05/20 03:59:02;;;;;;;7.62;3.70;;;;;;;10.29;72.39;101106.44;4454348;32;20097;-65
2022/05/20 04:04:15;;;;;;;8.52;3.42;;;;;;;10.75;69.85;101103.78;4455086;32;20088;-65
2022/05/20 04:06:42;;;;;;;11.55;3.50;;;;;;;10.86;69.89;101099.38;4453933;32;20115;-65
2022/05/20 04:09:09;;;;;;;7.57;3.62;;;;;;;11.11;69.60;101112.50;4453786;32;20116;-66
2022/05/20 04:11:38;;;;;;;10.70;4.00;;;;;;;11.28;67.01;101110.72;4453899;32;20472;-65
2022/05/20 04:14:05;;;;;;;8.05;3.47;;;;;;;11.34;67.79;101110.69;4453840;32;20159;-65
2022/05/20 04:16:32;;;;;;;9.38;3.90;;;;;;;11.44;67.12;101109.75;4453978;32;20673;-65
2022/05/20 04:19:00;;;;;;;6.80;3.78;;;;;;;11.46;68.53;101110.63;4454932;32;20093;-66
2022/05/20 04:21:27;;;;;;;12.13;4.12;;;;;;;11.53;67.96;101102.72;4454807;32;20441;-66
2022/05/20 04:23:54;;;;;;;10.82;4.45;;;;;;;11.63;68.38;101101.78;4454837;32;20160;-65
2022/05/20 04:26:21;;;;;;;13.10;4.55;;;;;;;11.86;68.31;101117.53;4454737;32;20171;-65
2022/05/20 04:28:48;;;;;;;7.28;4.37;;;;;;;12.24;67.44;101109.38;4454485;32;20152;-65
2022/05/20 04:31:15;;;;;;;11.55;4.22;;;;;;;12.39;66.45;101111.87;4453789;32;20089;-66
2022/05/20 04:33:43;;;;;;;11.02;4.95;;;;;;;12.51;64.75;101103.00;4454250;32;20213;-65
2022/05/20 04:36:10;;;;;;;6.62;4.20;;;;;;;12.66;64.69;101102.84;4454587;32;20076;-65
2022/05/20 04:38:37;;;;;;;11.27;4.75;;;;;;;12.99;64.00;101108.72;4453946;32;20126;-66
2022/05/20 04:49:22;;;;;;;8.68;4.60;;;;;;;13.56;61.58;101119.56;4457579;32;20145;-65
2022/05/20 04:51:49;;;;;;;8.80;4.87;;;;;;;13.54;62.04;101115.19;4469964;32;20123;-65
2022/05/20 04:57:03;;;;;;;17.60;4.72;;;;;;;13.88;60.43;101099.72;4454299;32;20174;-65
2022/05/20 04:59:36;;;;;;;8.77;4.80;;;;;;;13.96;61.03;101096.97;4454232;32;20088;-65
2022/05/20 05:02:04;;;;;;;19.62;5.57;;;;;;;14.05;63.16;101100.34;4453990;32;20084;-65
2022/05/20 05:04:32;;;;;;;20.55;6.20;;;;;;;14.04;62.44;101100.38;4454192;32;20100;-65
2022/05/20 05:06:59;;;;;;;20.52;5.43;;;;;;;13.91;63.55;101112.06;4466715;32;20111;-65
2022/05/20 05:09:26;;;;;;;11.75;5.45;;;;;;;14.10;62.58;101100.31;4469624;32;20124;-65
2022/05/20 05:11:53;;;;;;;20.90;5.90;;;;;;;14.22;61.30;101108.06;4469647;32;20744;-65
2022/05/20 05:14:20;;;;;;;21.85;5.47;;;;;;;14.27;60.75;101114.16;4469756;32;21058;-65
2022/05/20 05:16:48;;;;;;;19.87;5.55;;;;;;;14.42;60.67;101120.12;4469849;32;20143;-65
2022/05/20 05:19:15;;;;;;;10.60;5.05;;;;;;;14.50;59.73;101121.78;4471323;32;20139;-65
2022/05/20 05:21:42;;;;;;;14.30;5.93;;;;;;;14.54;59.38;101109.34;4471733;32;20103;-65
2022/05/20 05:24:09;;;;;;;7.75;4.93;;;;;;;14.60;58.67;101114.56;4471321;32;20100;-65
2022/05/20 05:26:39;;;;;;;16.02;4.90;;;;;;;14.83;57.17;101119.47;4471387;32;20101;-65
2022/05/20 05:29:06;;;;;;;14.05;5.62;;;;;;;14.93;56.23;101114.87;4471632;32;20096;-65
2022/05/20 05:31:33;;;;;;;10.73;5.20;;;;;;;14.92;57.12;101115.78;4471405;32;20704;-65
2022/05/20 05:34:01;;;;;;;13.55;6.53;;;;;;;14.99;57.87;101107.69;4457364;32;20125;-65
2022/05/20 05:36:28;;;;;;;11.68;5.22;;;;;;;15.03;58.53;101112.03;4471604;32;20081;-65
2022/05/20 05:38:55;;;;;;;21.55;6.00;;;;;;;15.01;58.10;101107.63;4471453;32;20448;-65
2022/05/20 05:41:22;;;;;;;10.38;5.70;;;;;;;15.23;57.90;101103.69;4471632;32;20091;-65
2022/05/20 05:43:49;;;;;;;12.70;4.55;;;;;;;15.38;56.80;101098.97;4456534;32;20148;-65
2022/05/20 05:46:17;;;;;;;25.55;6.57;;;;;;;15.60;56.63;101091.44;4455583;32;20081;-65
2022/05/20 05:48:44;;;;;;;7.18;5.45;;;;;;;15.63;57.15;101097.53;4455739;32;20688;-65
2022/05/20 05:51:12;;;;;;;13.18;5.10;;;;;;;15.76;56.38;101101.72;4455547;32;20483;-65
2022/05/20 05:53:39;;;;;;;17.23;5.55;;;;;;;15.97;54.85;101100.38;4455709;32;20871;-65
2022/05/20 05:56:09;;;;;;;12.80;5.53;;;;;;;15.98;56.43;101102.13;4455931;32;20224;-65
2022/05/20 05:58:37;;;;;;;14.20;5.53;;;;;;;15.99;56.46;101101.19;4455838;32;20093;-65
2022/05/20 06:01:05;;;;;;;17.27;5.10;;;;;;;15.92;55.34;101093.41;4455500;32;20580;-66
2022/05/20 06:03:33;;;;;;;11.12;5.53;;;;;;;16.09;55.45;101096.56;4455917;32;20139;-65
2022/05/20 06:06:01;;;;;;;10.05;4.95;;;;;;;16.23;55.01;101098.91;4455562;32;20085;-65
2022/05/20 06:08:28;;;;;;;22.35;6.18;;;;;;;16.58;54.44;101097.16;4455718;32;20779;-65
2022/05/20 06:11:00;;;;;;;15.20;5.47;;;;;;;16.84;55.48;101097.38;4455836;32;20092;-65
2022/05/20 06:13:29;;;;;;;13.18;4.90;;;;;;;17.24;54.69;101101.59;4455729;32;20092;-65
2022/05/20 06:15:57;;;;;;;14.77;6.57;;;;;;;17.52;53.40;101101.69;4455755;32;20107;-65
2022/05/20 06:18:26;;;;;;;8.80;4.75;;;;;;;17.63;52.19;101096.06;4455627;32;20449;-65
2022/05/20 06:20:53;;;;;;;7.22;3.87;;;;;;;18.07;49.90;101089.41;4454987;32;20130;-66
2022/05/20 06:23:20;;;;;;;5.32;3.50;;;;;;;18.18;48.45;101085.53;4455070;32;20813;-65
2022/05/20 06:25:48;;;;;;;9.75;4.53;;;;;;;18.52;47.40;101088.84;4455425;32;20159;-65
2022/05/20 06:28:35;;;;;;;7.32;3.80;;;;;;;18.52;46.38;101090.63;4455232;32;20214;-65
2022/05/20 06:31:05;;;;;;;10.07;3.85;;;;;;;18.66;46.40;101082.13;4455601;32;20093;-65
2022/05/20 06:33:34;;;;;;;6.60;3.62;;;;;;;18.80;46.30;101082.59;4455713;32;20191;-65
2022/05/20 06:41:32;;;;;;;6.30;3.42;;;;;;;18.97;45.69;101089.97;4455908;32;20142;-66
2022/05/20 06:44:01;;;;;;;11.12;4.37;;;;;;;18.81;45.71;101084.31;4463678;32;20091;-66
2022/05/20 06:46:28;;;;;;;13.40;4.00;;;;;;;18.57;47.30;101084.19;4470826;32;20689;-66
2022/05/20 06:49:00;;;;;;;16.10;4.37;;;;;;;18.51;47.45;101079.06;4471078;32;20080;-65
2022/05/20 06:51:35;;;;;;;13.85;4.55;;;;;;;18.43;46.85;101090.94;4470677;32;20100;-65
2022/05/20 06:54:05;;;;;;;21.23;4.57;;;;;;;18.26;49.48;101095.00;4470977;32;20111;-66
2022/05/20 06:56:33;;;;;;;9.65;3.83;;;;;;;18.26;49.15;101095.00;4470252;32;20080;-65
2022/05/20 06:59:02;;;;;;;8.82;3.97;;;;;;;18.28;48.50;101089.66;4471264;32;20092;-66
2022/05/20 07:01:29;;;;;;;4.22;3.78;;;;;;;18.18;47.34;101093.53;4471064;32;20088;-66
2022/05/20 07:03:58;;;;;;;578.10;39.97;;;;;;;18.07;47.41;101096.53;4471037;32;20164;-66
2022/05/20 07:06:26;;;;;;;319.75;28.77;;;;;;;18.38;47.67;101099.09;4471114;32;20148;-65
2022/05/20 07:08:53;;;;;;;58.80;6.87;;;;;;;18.66;46.76;101103.50;4469990;32;20092;-66
2022/05/20 07:11:22;;;;;;;14.15;4.70;;;;;;;18.86;47.40;101101.03;4469694;32;20815;-66
2022/05/20 07:13:54;;;;;;;15.43;4.28;;;;;;;19.25;46.56;101093.41;4470434;32;20166;-66
2022/05/20 07:16:27;;;;;;;58.13;4.93;;;;;;;19.37;44.88;101101.94;4470562;32;20077;-65
2022/05/20 07:18:56;;;;;;;11.20;3.92;;;;;;;19.52;43.87;101106.69;4471010;32;20141;-65
2022/05/20 07:21:24;;;;;;;8.95;4.00;;;;;;;19.39;44.90;101108.94;4471120;32;20108;-66
2022/05/20 07:23:51;;;;;;;14.82;3.53;;;;;;;19.53;43.58;101100.41;4470835;32;20091;-66
2022/05/20 07:26:18;;;;;;;10.73;3.00;;;;;;;19.73;44.81;101099.69;4471025;32;20080;-66
2022/05/20 07:28:46;;;;;;;21.58;4.22;;;;;;;19.78;43.15;101095.03;4470782;32;20085;-66
2022/05/20 07:31:14;;;;;;;13.00;3.33;;;;;;;20.13;43.33;101090.97;4470737;32;20092;-66
2022/05/20 07:33:43;;;;;;;10.15;3.65;;;;;;;20.03;42.31;101097.59;4470771;32;20191;-66
2022/05/20 07:36:11;;;;;;;5.55;2.83;;;;;;;20.32;43.50;101099.13;4470547;32;20803;-66
2022/05/20 07:38:38;;;;;;;12.75;2.53;;;;;;;20.67;41.33;101102.16;4470508;32;20111;-66
2022/05/20 07:41:05;;;;;;;6.75;2.70;;;;;;;20.62;40.33;101104.16;4469596;32;20085;-66
2022/05/20 07:43:33;;;;;;;4.82;2.80;;;;;;;20.71;38.85;101095.75;4457726;32;20169;-65
2022/05/20 07:46:02;;;;;;;8.05;2.40;;;;;;;20.75;39.59;101098.22;4455012;32;20076;-66
2022/05/20 07:48:29;;;;;;;10.73;2.65;;;;;;;20.80;39.15;101100.69;4455002;32;20113;-65
2022/05/20 07:51:03;;;;;;;3.35;1.90;;;;;;;20.91;37.94;101097.56;4454975;32;20088;-66
2022/05/20 07:53:36;;;;;;;6.62;2.87;;;;;;;21.14;37.94;101092.06;4454554;32;20096;-66
2022/05/20 07:56:12;;;;;;;12.82;2.70;;;;;;;21.40;36.92;101093.59;4455126;32;20139;-66
2022/05/20 07:58:49;;;;;;;4.68;2.20;;;;;;;21.50;37.05;101091.37;4454912;32;20110;-65
2022/05/20 08:01:21;;;;;;;8.70;2.22;;;;;;;21.33;35.90;101080.50;4454457;32;20093;-66
2022/05/20 08:06:40;;;;;;;9.20;2.25;;;;;;;21.89;36.37;101079.72;4454913;32;20092;-66
2022/05/20 08:09:09;;;;;;;7.87;2.30;;;;;;;22.10;35.72;101072.44;4454406;32;20145;-66
2022/05/20 08:11:36;;;;;;;3.22;2.22;;;;;;;22.27;35.49;101072.50;4452879;32;20409;-66
2022/05/20 08:14:03;;;;;;;9.63;2.35;;;;;;;22.26;35.26;101076.16;4452924;32;20096;-66
2022/05/20 08:16:31;;;;;;;3.42;2.20;;;;;;;22.18;36.10;101075.62;4452606;32;20488;-66
2022/05/20 08:18:58;;;;;;;4.05;2.20;;;;;;;22.36;35.60;101073.84;4453374;32;20119;-66
2022/05/20 08:21:26;;;;;;;5.95;2.75;;;;;;;22.33;35.74;101069.53;4452887;32;20971;-66
2022/05/20 08:23:53;;;;;;;8.38;2.10;;;;;;;22.67;34.85;101073.19;4452932;32;20122;-66
2022/05/20 08:26:20;;;;;;;6.45;2.00;;;;;;;22.57;33.87;101070.09;4454657;32;20080;-66
2022/05/20 08:28:48;;;;;;;2.85;2.22;;;;;;;22.73;33.82;101072.00;4454587;32;20076;-66
2022/05/20 08:31:16;;;;;;;10.50;2.00;;;;;;;22.43;34.13;101062.72;4453922;32;20105;-66
2022/05/20 08:33:44;;;;;;;4.93;1.83;;;;;;;22.59;34.67;101056.59;4453110;32;20460;-66
2022/05/20 08:36:11;;;;;;;6.80;2.00;;;;;;;22.90;32.51;101056.75;4461849;32;20118;-66
2022/05/20 08:38:38;;;;;;;15.55;2.53;;;;;;;22.95;33.36;101061.03;4470134;32;20149;-66
2022/05/20 08:41:05;;;;;;;13.13;2.00;;;;;;;23.16;33.20;101054.50;4465026;32;20162;-66
2022/05/20 08:43:34;;;;;;;2.50;1.98;;;;;;;23.48;33.14;101051.91;4461064;32;20189;-65
2022/05/20 08:46:07;;;;;;;5.00;2.28;;;;;;;23.70;32.71;101055.16;4469017;32;20159;-66
2022/05/20 08:48:35;;;;;;;10.55;2.22;;;;;;;23.60;33.00;101046.72;4468550;32;20093;-65
2022/05/20 08:51:02;;;;;;;6.07;1.73;;;;;;;23.92;32.73;101046.72;4468693;32;20089;-66
2022/05/20 08:53:40;;;;;;;5.90;1.70;;;;;;;23.78;32.22;101039.47;4463640;32;20092;-66
2022/05/20 08:56:12;;;;;;;7.50;1.62;;;;;;;23.83;31.54;101031.13;4463861;32;20145;-66
2022/05/20 08:58:48;;;;;;;4.82;1.75;;;;;;;23.89;31.89;101032.59;4470114;32;20132;-67
2022/05/20 09:01:16;;;;;;;5.45;1.77;;;;;;;23.94;31.64;101033.19;4471452;32;20081;-66
2022/05/20 09:03:43;;;;;;;4.55;1.62;;;;;;;24.17;31.55;101019.28;4471682;32;20126;-66
2022/05/20 09:06:15;;;;;;;6.15;1.90;;;;;;;24.50;31.89;101029.06;4471354;32;20114;-66
2022/05/20 09:08:45;;;;;;;14.05;1.70;;;;;;;24.71;31.49;101021.50;4471148;32;20113;-66
2022/05/20 09:11:15;;;;;;;9.95;1.67;;;;;;;24.42;31.86;101007.09;4464594;32;20109;-66
2022/05/20 09:16:30;;;;;;;4.57;2.03;;;;;;;24.69;31.34;101001.84;4456006;32;20464;-66
2022/05/20 09:19:11;;;;;;;20.85;2.37;;;;;;;24.66;32.11;100996.63;4455421;32;20081;-67
2022/05/20 09:21:44;;;;;;;3.08;1.80;;;;;;;25.30;31.48;100983.69;4456747;32;20116;-66
2022/05/20 09:24:20;;;;;;;4.07;1.95;;;;;;;25.28;30.50;100991.91;4459296;32;20170;-66
2022/05/20 09:26:59;;;;;;;15.05;2.40;;;;;;;24.80;31.07;100992.13;4455707;32;20134;-65
2022/05/20 09:29:35;;;;;;;4.47;1.77;;;;;;;24.97;31.58;101001.00;4455445;32;20154;-66
2022/05/20 09:32:28;;;;;;;14.63;1.83;;;;;;;25.20;32.03;100997.78;4455775;32;20089;-66
2022/05/20 09:35:02;;;;;;;10.63;2.05;;;;;;;24.92;31.54;100982.44;4455850;32;20199;-66
2022/05/20 09:37:33;;;;;;;5.82;1.77;;;;;;;25.26;31.23;100986.59;4455923;32;20130;-66
2022/05/20 09:40:41;;;;;;;12.90;2.08;;;;;;;25.68;31.07;100965.87;4464552;32;20127;-66
2022/05/20 09:43:29;;;;;;;9.70;2.50;;;;;;;26.36;30.67;100970.38;4461094;32;20169;-66
2022/05/20 09:45:59;;;;;;;14.98;1.70;;;;;;;26.08;29.75;100971.38;4466618;32;20099;-65
2022/05/20 09:48:47;;;;;;;10.65;2.30;;;;;;;26.02;30.31;100966.38;4458473;32;20111;-66
2022/05/20 09:51:19;;;;;;;5.72;1.80;;;;;;;26.61;30.68;100955.19;4469614;32;20089;-66
2022/05/20 09:54:24;;;;;;;4.87;1.52;;;;;;;26.78;29.73;100962.94;4471344;32;20101;-65
2022/05/20 09:56:57;;;;;;;2.75;1.60;;;;;;;26.91;28.89;100969.22;4470089;32;20131;-66
2022/05/20 09:59:43;;;;;;;5.80;1.80;;;;;;;27.34;29.86;100968.00;4459668;32;20107;-66
2022/05/20 10:02:30;;;;;;;6.30;1.85;;;;;;;27.53;28.99;100964.84;4455200;32;20084;-66
2022/05/20 10:05:08;;;;;;;2.72;1.85;;;;;;;27.86;28.38;100975.03;4454805;32;20131;-65
2022/05/20 10:08:04;;;;;;;2.95;1.90;;;;;;;27.48;28.18;100962.44;4455787;32;20397;-66
2022/05/20 10:10:38;;;;;;;7.32;2.12;;;;;;;27.39;29.13;100968.56;4455907;32;20466;-66
2022/05/20 10:13:10;;;;;;;4.47;1.73;;;;;;;27.83;28.66;100961.72;4455720;32;20081;-65
2022/05/20 10:15:46;;;;;;;6.95;1.98;;;;;;;28.01;28.07;100957.59;4455689;32;20528;-65
2022/05/20 10:18:31;;;;;;;4.60;2.10;;;;;;;28.41;27.36;100951.00;4463042;32;20166;-65
2022/05/20 10:21:25;;;;;;;7.00;2.00;;;;;;;28.67;27.67;100943.53;4466007;32;20131;-65
2022/05/20 10:24:04;;;;;;;8.45;1.95;;;;;;;28.56;27.81;100950.69;4469061;32;20083;-65
2022/05/20 10:26:55;;;;;;;11.80;2.12;;;;;;;27.83;27.35;100943.62;4463486;32;20160;-65
2022/05/20 10:33:09;;;;;;;3.55;1.58;;;;;;;28.18;27.75;100947.34;4433935;32;20084;-65
2022/05/20 10:36:05;;;;;;;3.60;1.62;;;;;;;28.28;27.58;100945.66;4461988;32;20096;-66
2022/05/20 10:38:59;;;;;;;11.75;2.30;;;;;;;28.53;27.12;100944.63;4435043;32;20760;-66
2022/05/20 10:42:01;;;;;;;8.10;2.00;;;;;;;28.51;27.28;100954.72;4462588;32;20134;-66
2022/05/20 10:50:28;;;;;;;6.40;1.85;;;;;;;28.81;27.25;100935.19;4463110;32;20122;-65
2022/05/20 10:53:36;;;;;;;4.57;1.70;;;;;;;29.38;26.37;100936.91;4462125;32;20108;-65
2022/05/20 10:56:43;;;;;;;3.72;1.77;;;;;;;29.31;26.78;100924.81;4443208;32;20148;-65
2022/05/20 10:59:28;;;;;;;4.12;2.22;;;;;;;30.01;26.60;100928.97;4454109;32;20334;-65
2022/05/20 11:02:17;;;;;;;7.90;1.73;;;;;;;30.27;26.38;100920.44;4457367;32;20183;-65
2022/05/20 11:05:14;;;;;;;7.20;2.28;;;;;;;30.39;25.63;100914.81;4463979;32;20210;-65
2022/05/20 11:07:54;;;;;;;2.83;2.12;;;;;;;30.53;25.53;100913.62;4470326;32;20068;-65
2022/05/20 11:10:24;;;;;;;2.97;1.90;;;;;;;29.39;26.35;100911.47;4459470;32;20148;-65
2022/05/20 11:13:25;;;;;;;6.43;2.17;;;;;;;29.83;26.60;100908.78;4455102;32;20231;-65
2022/05/20 11:16:24;;;;;;;2.28;2.10;;;;;;;29.85;26.06;100904.06;4454628;32;20096;-65
2022/05/20 11:19:14;;;;;;;7.20;2.42;;;;;;;29.60;26.30;100908.00;4422196;32;20076;-66
2022/05/20 11:21:57;;;;;;;5.20;1.80;;;;;;;29.94;26.48;100909.59;4455209;32;20123;-65
2022/05/20 11:24:40;;;;;;;4.37;2.08;;;;;;;30.64;25.95;100905.38;4457136;32;20112;-65
2022/05/20 11:27:22;;;;;;;6.05;2.15;;;;;;;30.72;25.44;100904.69;4460709;32;20179;-65
2022/05/20 11:30:00;;;;;;;6.03;2.30;;;;;;;31.22;24.74;100899.31;4460902;32;20164;-65
2022/05/20 11:33:02;;;;;;;7.53;2.22;;;;;;;31.78;24.21;100893.28;4459456;32;20081;-65
2022/05/20 11:35:59;;;;;;;11.05;6.57;;;;;;;31.99;23.79;100892.31;4462465;32;20119;-65
2022/05/20 11:38:55;;;;;;;36.83;29.67;;;;;;;32.65;23.31;100894.19;4461419;32;20095;-65
2022/05/20 11:41:44;;;;;;;6.05;4.47;;;;;;;33.19;23.18;100874.28;4460982;32;20171;-65
2022/05/20 11:44:39;;;;;;;9.52;2.62;;;;;;;33.93;21.82;100880.53;4456175;32;20180;-65
2022/05/20 11:47:48;;;;;;;11.63;7.70;;;;;;;33.37;22.54;100873.47;4460354;32;20112;-65
2022/05/20 11:50:24;;;;;;;5.00;2.70;;;;;;;34.54;20.77;100862.38;4448274;32;20096;-65
2022/05/20 11:53:17;;;;;;;5.22;3.87;;;;;;;34.46;21.25;100863.16;4461862;32;20271;-63
2022/05/20 11:55:57;;;;;;;5.95;2.78;;;;;;;35.84;20.67;100860.06;4456396;32;20096;-63
2022/05/20 11:58:29;;;;;;;10.23;2.75;;;;;;;36.28;19.39;100856.97;4454312;32;20124;-64
2022/05/20 12:00:58;;;;;;;10.23;4.20;;;;;;;37.44;19.33;100844.53;4456218;32;20105;-64
2022/05/20 12:03:30;;;;;;;10.55;7.60;;;;;;;38.99;17.96;100842.19;4468009;32;20738;-63
2022/05/20 12:06:00;;;;;;;6.00;2.45;;;;;;;37.93;18.02;100857.94;4461120;32;20076;-64
2022/05/20 12:08:44;;;;;;;5.82;2.62;;;;;;;37.15;18.66;100836.97;4463410;32;20161;-64
2022/05/20 12:11:29;;;;;;;9.00;2.45;;;;;;;34.75;21.12;100843.66;4463147;32;20433;-64
2022/05/20 12:14:16;;;;;;;4.15;2.22;;;;;;;36.59;19.24;100837.03;4462589;32;20163;-63
2022/05/20 12:17:05;;;;;;;5.20;4.25;;;;;;;37.06;18.51;100833.41;4460942;32;20104;-64
2022/05/20 12:25:42;;;;;;;14.63;2.72;;;;;;;38.23;18.24;100820.31;4458270;32;20104;-64
2022/05/20 12:28:30;;;;;;;37.03;25.10;;;;;;;38.42;18.45;100819.78;4466591;32;20420;-64
2022/05/20 12:31:47;;;;;;;4.40;2.53;;;;;;;38.58;18.23;100815.12;4465694;32;20135;-64
2022/05/20 12:34:37;;;;;;;13.90;8.32;;;;;;;38.13;18.64;100814.22;4389441;32;20221;-64
2022/05/20 12:37:04;;;;;;;11.73;2.55;;;;;;;39.25;17.88;100806.69;4389183;32;20184;-64
2022/05/20 12:39:52;;;;;;;5.93;2.70;;;;;;;39.56;17.03;100800.00;4446659;32;20136;-64